sensor_id;sensor_type;location;lat;lon;timestamp;P1;durP1;ratioP1;P2;durP2;ratioP2
52620;SDS011;38515;53.160;6.990;2024-01-06T00:00:38;705.72;;;672.28;;
52620;SDS011;38515;53.160;6.990;2024-01-06T00:03:04;688.65;;;655.88;;
52620;SDS011;38515;53.160;6.990;2024-01-06T00:05:30;683.03;;;650.53;;
52620;SDS011;38515;53.160;6.990;2024-01-06T00:07:56;689.80;;;657.28;;
52620;SDS011;38515;53.160;6.990;2024-01-06T00:10:21;658.30;;;627.78;;
52620;SDS011;38515;53.160;6.990;2024-01-06T00:12:47;648.60;;;618.67;;
52620;SDS011;38515;53.160;6.990;2024-01-06T00:15:14;519.85;;;496.73;;
52620;SDS011;38515;53.160;6.990;2024-01-06T00:17:39;481.08;;;460.00;;
52620;SDS011;38515;53.160;6.990;2024-01-06T00:20:05;468.45;;;448.75;;
52620;SDS011;38515;53.160;6.990;2024-01-06T00:22:31;429.85;;;411.90;;
52620;SDS011;38515;53.160;6.990;2024-01-06T00:24:57;420.45;;;403.02;;
52620;SDS011;38515;53.160;6.990;2024-01-06T00:27:23;450.95;;;432.27;;
52620;SDS011;38515;53.160;6.990;2024-01-06T00:29:48;444.42;;;425.88;;
52620;SDS011;38515;53.160;6.990;2024-01-06T00:32:14;437.50;;;418.85;;
52620;SDS011;38515;53.160;6.990;2024-01-06T00:34:39;440.70;;;422.42;;
52620;SDS011;38515;53.160;6.990;2024-01-06T00:37:05;515.25;;;492.88;;
52620;SDS011;38515;53.160;6.990;2024-01-06T00:39:31;427.45;;;409.33;;
52620;SDS011;38515;53.160;6.990;2024-01-06T00:41:57;401.17;;;384.35;;
52620;SDS011;38515;53.160;6.990;2024-01-06T00:44:22;382.00;;;365.83;;
52620;SDS011;38515;53.160;6.990;2024-01-06T00:46:48;404.30;;;386.95;;
52620;SDS011;38515;53.160;6.990;2024-01-06T00:49:14;397.92;;;381.30;;
52620;SDS011;38515;53.160;6.990;2024-01-06T00:51:39;402.05;;;385.30;;
52620;SDS011;38515;53.160;6.990;2024-01-06T00:54:05;437.08;;;418.50;;
52620;SDS011;38515;53.160;6.990;2024-01-06T00:56:31;430.88;;;412.75;;
52620;SDS011;38515;53.160;6.990;2024-01-06T00:58:56;467.15;;;446.92;;
52620;SDS011;38515;53.160;6.990;2024-01-06T01:01:22;475.15;;;454.30;;
52620;SDS011;38515;53.160;6.990;2024-01-06T01:03:48;465.60;;;445.60;;
52620;SDS011;38515;53.160;6.990;2024-01-06T01:06:13;578.28;;;551.38;;
52620;SDS011;38515;53.160;6.990;2024-01-06T01:08:39;473.10;;;452.60;;
52620;SDS011;38515;53.160;6.990;2024-01-06T01:11:05;78.88;;;73.82;;
52620;SDS011;38515;53.160;6.990;2024-01-06T01:13:30;561.65;;;535.05;;
52620;SDS011;38515;53.160;6.990;2024-01-06T01:15:56;608.30;;;579.40;;
52620;SDS011;38515;53.160;6.990;2024-01-06T01:18:22;507.75;;;486.08;;
52620;SDS011;38515;53.160;6.990;2024-01-06T01:20:50;650.20;;;621.45;;
52620;SDS011;38515;53.160;6.990;2024-01-06T01:23:15;573.38;;;548.47;;
52620;SDS011;38515;53.160;6.990;2024-01-06T01:25:41;586.38;;;560.63;;
52620;SDS011;38515;53.160;6.990;2024-01-06T01:28:07;605.72;;;578.90;;
52620;SDS011;38515;53.160;6.990;2024-01-06T01:30:32;644.78;;;615.58;;
52620;SDS011;38515;53.160;6.990;2024-01-06T01:32:58;564.15;;;539.53;;
52620;SDS011;38515;53.160;6.990;2024-01-06T01:35:24;516.38;;;494.33;;
52620;SDS011;38515;53.160;6.990;2024-01-06T01:37:49;502.55;;;481.17;;
52620;SDS011;38515;53.160;6.990;2024-01-06T01:40:15;432.17;;;414.35;;
52620;SDS011;38515;53.160;6.990;2024-01-06T01:42:42;489.50;;;468.83;;
52620;SDS011;38515;53.160;6.990;2024-01-06T01:45:08;429.60;;;411.67;;
52620;SDS011;38515;53.160;6.990;2024-01-06T01:47:34;413.92;;;396.55;;
52620;SDS011;38515;53.160;6.990;2024-01-06T01:50:01;420.45;;;403.10;;
52620;SDS011;38515;53.160;6.990;2024-01-06T01:52:29;437.38;;;418.65;;
52620;SDS011;38515;53.160;6.990;2024-01-06T01:54:55;382.65;;;367.13;;
52620;SDS011;38515;53.160;6.990;2024-01-06T01:57:22;365.85;;;351.38;;
52620;SDS011;38515;53.160;6.990;2024-01-06T01:59:49;382.48;;;366.67;;
52620;SDS011;38515;53.160;6.990;2024-01-06T02:02:17;388.45;;;372.73;;
52620;SDS011;38515;53.160;6.990;2024-01-06T02:04:44;414.70;;;397.48;;
52620;SDS011;38515;53.160;6.990;2024-01-06T02:07:13;428.70;;;411.13;;
52620;SDS011;38515;53.160;6.990;2024-01-06T02:09:38;441.60;;;422.95;;
52620;SDS011;38515;53.160;6.990;2024-01-06T02:12:04;418.77;;;400.90;;
52620;SDS011;38515;53.160;6.990;2024-01-06T02:14:30;468.88;;;448.95;;
52620;SDS011;38515;53.160;6.990;2024-01-06T02:16:57;456.48;;;437.08;;
52620;SDS011;38515;53.160;6.990;2024-01-06T02:19:23;474.67;;;454.17;;
52620;SDS011;38515;53.160;6.990;2024-01-06T02:21:52;455.60;;;436.67;;
52620;SDS011;38515;53.160;6.990;2024-01-06T02:24:19;440.23;;;421.55;;
52620;SDS011;38515;53.160;6.990;2024-01-06T02:26:45;82.65;;;77.03;;
52620;SDS011;38515;53.160;6.990;2024-01-06T02:29:11;523.45;;;499.80;;
52620;SDS011;38515;53.160;6.990;2024-01-06T02:31:36;470.15;;;450.13;;
52620;SDS011;38515;53.160;6.990;2024-01-06T02:34:02;499.83;;;477.70;;
52620;SDS011;38515;53.160;6.990;2024-01-06T02:36:28;536.42;;;512.38;;
52620;SDS011;38515;53.160;6.990;2024-01-06T02:38:53;518.75;;;496.05;;
52620;SDS011;38515;53.160;6.990;2024-01-06T02:41:19;502.67;;;480.08;;
52620;SDS011;38515;53.160;6.990;2024-01-06T02:43:44;550.17;;;524.95;;
52620;SDS011;38515;53.160;6.990;2024-01-06T02:46:10;573.40;;;547.45;;
52620;SDS011;38515;53.160;6.990;2024-01-06T02:48:36;545.10;;;520.38;;
52620;SDS011;38515;53.160;6.990;2024-01-06T02:51:01;545.03;;;519.97;;
52620;SDS011;38515;53.160;6.990;2024-01-06T02:53:27;546.72;;;522.35;;
52620;SDS011;38515;53.160;6.990;2024-01-06T02:55:53;601.15;;;573.28;;
52620;SDS011;38515;53.160;6.990;2024-01-06T02:58:19;577.53;;;551.25;;
52620;SDS011;38515;53.160;6.990;2024-01-06T03:00:44;547.60;;;523.05;;
52620;SDS011;38515;53.160;6.990;2024-01-06T03:03:10;579.42;;;552.72;;
52620;SDS011;38515;53.160;6.990;2024-01-06T03:05:35;622.13;;;592.78;;
52620;SDS011;38515;53.160;6.990;2024-01-06T03:08:02;613.63;;;584.92;;
52620;SDS011;38515;53.160;6.990;2024-01-06T03:10:28;595.90;;;568.60;;
52620;SDS011;38515;53.160;6.990;2024-01-06T03:12:54;617.53;;;589.20;;
52620;SDS011;38515;53.160;6.990;2024-01-06T03:15:20;624.00;;;594.78;;
52620;SDS011;38515;53.160;6.990;2024-01-06T03:17:45;622.03;;;592.95;;
52620;SDS011;38515;53.160;6.990;2024-01-06T03:20:11;604.75;;;577.10;;
52620;SDS011;38515;53.160;6.990;2024-01-06T03:22:37;601.00;;;573.40;;
52620;SDS011;38515;53.160;6.990;2024-01-06T03:25:03;593.83;;;566.72;;
52620;SDS011;38515;53.160;6.990;2024-01-06T03:27:29;577.42;;;551.40;;
52620;SDS011;38515;53.160;6.990;2024-01-06T03:29:55;581.90;;;555.72;;
52620;SDS011;38515;53.160;6.990;2024-01-06T03:32:21;592.20;;;565.17;;
52620;SDS011;38515;53.160;6.990;2024-01-06T03:34:47;613.55;;;585.55;;
52620;SDS011;38515;53.160;6.990;2024-01-06T03:37:12;563.22;;;537.88;;
52620;SDS011;38515;53.160;6.990;2024-01-06T03:39:38;508.10;;;486.00;;
52620;SDS011;38515;53.160;6.990;2024-01-06T03:42:04;518.30;;;496.02;;
52620;SDS011;38515;53.160;6.990;2024-01-06T03:44:30;457.27;;;438.42;;
52620;SDS011;38515;53.160;6.990;2024-01-06T03:46:58;461.35;;;443.05;;
52620;SDS011;38515;53.160;6.990;2024-01-06T03:49:24;474.98;;;454.95;;
52620;SDS011;38515;53.160;6.990;2024-01-06T03:51:50;477.33;;;457.65;;
52620;SDS011;38515;53.160;6.990;2024-01-06T03:54:16;442.45;;;424.77;;
52620;SDS011;38515;53.160;6.990;2024-01-06T03:56:42;460.35;;;441.50;;
52620;SDS011;38515;53.160;6.990;2024-01-06T03:59:08;475.60;;;456.27;;
52620;SDS011;38515;53.160;6.990;2024-01-06T04:01:33;577.58;;;552.05;;
52620;SDS011;38515;53.160;6.990;2024-01-06T04:04:04;689.60;;;657.13;;
52620;SDS011;38515;53.160;6.990;2024-01-06T04:06:31;520.90;;;498.02;;
52620;SDS011;38515;53.160;6.990;2024-01-06T04:09:00;657.50;;;626.75;;
52620;SDS011;38515;53.160;6.990;2024-01-06T04:11:26;693.67;;;660.53;;
52620;SDS011;38515;53.160;6.990;2024-01-06T04:13:51;524.45;;;501.45;;
52620;SDS011;38515;53.160;6.990;2024-01-06T04:16:17;683.50;;;651.13;;
52620;SDS011;38515;53.160;6.990;2024-01-06T04:18:43;610.22;;;581.85;;
52620;SDS011;38515;53.160;6.990;2024-01-06T04:21:08;683.95;;;651.58;;
52620;SDS011;38515;53.160;6.990;2024-01-06T04:23:36;684.05;;;651.45;;
52620;SDS011;38515;53.160;6.990;2024-01-06T04:26:01;691.75;;;658.83;;
52620;SDS011;38515;53.160;6.990;2024-01-06T04:28:28;704.25;;;670.78;;
52620;SDS011;38515;53.160;6.990;2024-01-06T04:30:54;654.78;;;624.33;;
52620;SDS011;38515;53.160;6.990;2024-01-06T04:33:20;663.25;;;632.08;;
52620;SDS011;38515;53.160;6.990;2024-01-06T04:35:46;422.83;;;405.40;;
52620;SDS011;38515;53.160;6.990;2024-01-06T04:38:11;357.92;;;343.45;;
52620;SDS011;38515;53.160;6.990;2024-01-06T04:40:37;368.77;;;353.90;;
52620;SDS011;38515;53.160;6.990;2024-01-06T04:43:02;572.88;;;547.85;;
52620;SDS011;38515;53.160;6.990;2024-01-06T04:45:28;534.10;;;510.75;;
52620;SDS011;38515;53.160;6.990;2024-01-06T04:47:54;502.25;;;480.77;;
52620;SDS011;38515;53.160;6.990;2024-01-06T04:50:20;600.45;;;573.72;;
52620;SDS011;38515;53.160;6.990;2024-01-06T04:52:45;573.42;;;547.83;;
52620;SDS011;38515;53.160;6.990;2024-01-06T04:55:11;532.95;;;509.50;;
52620;SDS011;38515;53.160;6.990;2024-01-06T04:57:37;543.70;;;519.45;;
52620;SDS011;38515;53.160;6.990;2024-01-06T05:00:03;521.45;;;498.67;;
52620;SDS011;38515;53.160;6.990;2024-01-06T05:02:30;556.53;;;531.42;;
52620;SDS011;38515;53.160;6.990;2024-01-06T05:04:55;559.80;;;534.85;;
52620;SDS011;38515;53.160;6.990;2024-01-06T05:07:21;596.63;;;570.17;;
52620;SDS011;38515;53.160;6.990;2024-01-06T05:09:46;558.10;;;533.75;;
52620;SDS011;38515;53.160;6.990;2024-01-06T05:12:12;634.95;;;606.67;;
52620;SDS011;38515;53.160;6.990;2024-01-06T05:14:38;593.53;;;567.25;;
52620;SDS011;38515;53.160;6.990;2024-01-06T05:17:04;479.60;;;458.90;;
52620;SDS011;38515;53.160;6.990;2024-01-06T05:19:30;395.58;;;379.42;;
52620;SDS011;38515;53.160;6.990;2024-01-06T05:21:56;607.53;;;580.78;;
52620;SDS011;38515;53.160;6.990;2024-01-06T05:24:22;535.65;;;512.47;;
52620;SDS011;38515;53.160;6.990;2024-01-06T05:26:48;462.23;;;442.80;;
52620;SDS011;38515;53.160;6.990;2024-01-06T05:29:13;625.95;;;598.63;;
52620;SDS011;38515;53.160;6.990;2024-01-06T05:31:39;399.40;;;382.98;;
52620;SDS011;38515;53.160;6.990;2024-01-06T05:34:04;376.92;;;361.98;;
52620;SDS011;38515;53.160;6.990;2024-01-06T05:36:31;385.00;;;367.77;;
52620;SDS011;38515;53.160;6.990;2024-01-06T05:38:57;371.40;;;356.55;;
52620;SDS011;38515;53.160;6.990;2024-01-06T05:41:22;349.90;;;335.55;;
52620;SDS011;38515;53.160;6.990;2024-01-06T05:43:48;341.75;;;327.98;;
52620;SDS011;38515;53.160;6.990;2024-01-06T05:46:47;352.42;;;338.55;;
52620;SDS011;38515;53.160;6.990;2024-01-06T05:49:06;361.60;;;346.88;;
52620;SDS011;38515;53.160;6.990;2024-01-06T05:51:31;370.55;;;355.58;;
52620;SDS011;38515;53.160;6.990;2024-01-06T05:53:57;348.83;;;334.75;;
52620;SDS011;38515;53.160;6.990;2024-01-06T05:56:26;354.00;;;339.75;;
52620;SDS011;38515;53.160;6.990;2024-01-06T05:58:52;341.40;;;327.73;;
52620;SDS011;38515;53.160;6.990;2024-01-06T06:01:19;361.63;;;346.98;;
52620;SDS011;38515;53.160;6.990;2024-01-06T06:03:48;381.40;;;365.85;;
52620;SDS011;38515;53.160;6.990;2024-01-06T06:06:15;354.52;;;340.40;;
52620;SDS011;38515;53.160;6.990;2024-01-06T06:08:41;374.38;;;359.13;;
52620;SDS011;38515;53.160;6.990;2024-01-06T06:11:08;342.45;;;328.50;;
52620;SDS011;38515;53.160;6.990;2024-01-06T06:13:37;350.52;;;336.30;;
52620;SDS011;38515;53.160;6.990;2024-01-06T06:16:04;370.38;;;355.58;;
52620;SDS011;38515;53.160;6.990;2024-01-06T06:18:30;500.08;;;477.42;;
52620;SDS011;38515;53.160;6.990;2024-01-06T06:20:56;358.55;;;344.10;;
52620;SDS011;38515;53.160;6.990;2024-01-06T06:23:21;373.48;;;358.27;;
52620;SDS011;38515;53.160;6.990;2024-01-06T06:25:47;374.13;;;357.90;;
52620;SDS011;38515;53.160;6.990;2024-01-06T06:28:13;224.35;;;215.77;;
52620;SDS011;38515;53.160;6.990;2024-01-06T06:30:38;371.58;;;356.85;;
52620;SDS011;38515;53.160;6.990;2024-01-06T06:33:04;399.88;;;383.45;;
52620;SDS011;38515;53.160;6.990;2024-01-06T06:35:30;389.33;;;373.27;;
52620;SDS011;38515;53.160;6.990;2024-01-06T06:37:55;386.98;;;371.10;;
52620;SDS011;38515;53.160;6.990;2024-01-06T06:40:21;429.20;;;411.35;;
52620;SDS011;38515;53.160;6.990;2024-01-06T06:42:47;452.00;;;432.95;;
52620;SDS011;38515;53.160;6.990;2024-01-06T06:45:12;468.60;;;448.65;;
52620;SDS011;38515;53.160;6.990;2024-01-06T06:47:38;484.63;;;463.48;;
52620;SDS011;38515;53.160;6.990;2024-01-06T06:50:04;451.75;;;431.83;;
52620;SDS011;38515;53.160;6.990;2024-01-06T06:52:30;480.73;;;459.80;;
52620;SDS011;38515;53.160;6.990;2024-01-06T06:54:56;447.38;;;428.10;;
52620;SDS011;38515;53.160;6.990;2024-01-06T06:57:23;484.88;;;463.13;;
52620;SDS011;38515;53.160;6.990;2024-01-06T06:59:49;472.70;;;452.10;;
52620;SDS011;38515;53.160;6.990;2024-01-06T07:02:15;421.98;;;404.25;;
52620;SDS011;38515;53.160;6.990;2024-01-06T07:04:40;446.85;;;427.58;;
52620;SDS011;38515;53.160;6.990;2024-01-06T07:07:06;480.02;;;459.13;;
52620;SDS011;38515;53.160;6.990;2024-01-06T07:09:32;367.95;;;353.63;;
52620;SDS011;38515;53.160;6.990;2024-01-06T07:11:57;421.17;;;403.30;;
52620;SDS011;38515;53.160;6.990;2024-01-06T07:14:23;470.65;;;450.08;;
52620;SDS011;38515;53.160;6.990;2024-01-06T07:16:49;471.58;;;450.80;;
52620;SDS011;38515;53.160;6.990;2024-01-06T07:19:14;502.88;;;480.98;;
52620;SDS011;38515;53.160;6.990;2024-01-06T07:21:40;418.58;;;400.77;;
52620;SDS011;38515;53.160;6.990;2024-01-06T07:24:06;410.42;;;393.33;;
52620;SDS011;38515;53.160;6.990;2024-01-06T07:26:31;411.20;;;393.80;;
52620;SDS011;38515;53.160;6.990;2024-01-06T07:28:57;374.15;;;358.52;;
52620;SDS011;38515;53.160;6.990;2024-01-06T07:31:23;441.33;;;423.02;;
52620;SDS011;38515;53.160;6.990;2024-01-06T07:33:48;572.28;;;544.50;;
52620;SDS011;38515;53.160;6.990;2024-01-06T07:36:14;552.00;;;526.75;;
52620;SDS011;38515;53.160;6.990;2024-01-06T07:38:41;561.75;;;536.38;;
52620;SDS011;38515;53.160;6.990;2024-01-06T07:41:06;555.63;;;530.05;;
52620;SDS011;38515;53.160;6.990;2024-01-06T07:43:32;555.80;;;530.42;;
52620;SDS011;38515;53.160;6.990;2024-01-06T07:45:58;545.90;;;520.85;;
52620;SDS011;38515;53.160;6.990;2024-01-06T07:48:24;562.10;;;536.38;;
52620;SDS011;38515;53.160;6.990;2024-01-06T07:50:50;556.08;;;530.67;;
52620;SDS011;38515;53.160;6.990;2024-01-06T07:53:15;579.22;;;552.58;;
52620;SDS011;38515;53.160;6.990;2024-01-06T07:55:42;554.10;;;528.05;;
52620;SDS011;38515;53.160;6.990;2024-01-06T07:58:07;607.20;;;578.17;;
52620;SDS011;38515;53.160;6.990;2024-01-06T08:00:33;594.65;;;566.50;;
52620;SDS011;38515;53.160;6.990;2024-01-06T08:02:59;591.38;;;563.90;;
52620;SDS011;38515;53.160;6.990;2024-01-06T08:05:25;625.38;;;596.10;;
52620;SDS011;38515;53.160;6.990;2024-01-06T08:07:51;638.08;;;607.53;;
52620;SDS011;38515;53.160;6.990;2024-01-06T08:10:17;631.90;;;601.58;;
52620;SDS011;38515;53.160;6.990;2024-01-06T08:12:43;577.72;;;550.05;;
52620;SDS011;38515;53.160;6.990;2024-01-06T08:15:09;60.75;;;57.50;;
52620;SDS011;38515;53.160;6.990;2024-01-06T08:17:35;473.27;;;452.55;;
52620;SDS011;38515;53.160;6.990;2024-01-06T08:20:01;494.08;;;471.92;;
52620;SDS011;38515;53.160;6.990;2024-01-06T08:22:28;522.70;;;498.85;;
52620;SDS011;38515;53.160;6.990;2024-01-06T08:24:54;539.80;;;515.13;;
52620;SDS011;38515;53.160;6.990;2024-01-06T08:27:19;383.45;;;368.35;;
52620;SDS011;38515;53.160;6.990;2024-01-06T08:29:46;480.58;;;459.38;;
52620;SDS011;38515;53.160;6.990;2024-01-06T08:32:12;638.25;;;605.30;;
52620;SDS011;38515;53.160;6.990;2024-01-06T08:34:39;554.25;;;530.10;;
52620;SDS011;38515;53.160;6.990;2024-01-06T08:37:05;512.95;;;490.40;;
52620;SDS011;38515;53.160;6.990;2024-01-06T08:39:31;461.80;;;441.67;;
52620;SDS011;38515;53.160;6.990;2024-01-06T08:41:57;462.52;;;442.23;;
52620;SDS011;38515;53.160;6.990;2024-01-06T08:44:22;469.40;;;448.95;;
52620;SDS011;38515;53.160;6.990;2024-01-06T08:46:48;422.80;;;405.45;;
52620;SDS011;38515;53.160;6.990;2024-01-06T08:49:14;522.60;;;499.55;;
52620;SDS011;38515;53.160;6.990;2024-01-06T08:51:40;451.35;;;432.10;;
52620;SDS011;38515;53.160;6.990;2024-01-06T08:54:05;545.58;;;521.70;;
52620;SDS011;38515;53.160;6.990;2024-01-06T08:56:32;602.83;;;575.22;;
52620;SDS011;38515;53.160;6.990;2024-01-06T08:58:58;651.90;;;621.97;;
52620;SDS011;38515;53.160;6.990;2024-01-06T09:01:24;606.33;;;578.78;;
52620;SDS011;38515;53.160;6.990;2024-01-06T09:03:50;547.80;;;523.00;;
52620;SDS011;38515;53.160;6.990;2024-01-06T09:06:16;542.10;;;518.60;;
52620;SDS011;38515;53.160;6.990;2024-01-06T09:08:41;574.60;;;549.67;;
52620;SDS011;38515;53.160;6.990;2024-01-06T09:11:07;535.58;;;511.83;;
52620;SDS011;38515;53.160;6.990;2024-01-06T09:13:33;565.63;;;540.90;;
52620;SDS011;38515;53.160;6.990;2024-01-06T09:15:59;608.55;;;581.08;;
52620;SDS011;38515;53.160;6.990;2024-01-06T09:18:26;616.13;;;587.95;;
52620;SDS011;38515;53.160;6.990;2024-01-06T09:20:52;590.95;;;564.65;;
52620;SDS011;38515;53.160;6.990;2024-01-06T09:23:19;623.92;;;594.80;;
52620;SDS011;38515;53.160;6.990;2024-01-06T09:25:45;589.92;;;562.85;;
52620;SDS011;38515;53.160;6.990;2024-01-06T09:28:15;556.35;;;531.38;;
52620;SDS011;38515;53.160;6.990;2024-01-06T09:30:40;565.38;;;539.50;;
52620;SDS011;38515;53.160;6.990;2024-01-06T09:33:06;585.00;;;558.80;;
52620;SDS011;38515;53.160;6.990;2024-01-06T09:35:33;596.17;;;569.05;;
52620;SDS011;38515;53.160;6.990;2024-01-06T09:37:59;444.88;;;425.73;;
52620;SDS011;38515;53.160;6.990;2024-01-06T09:40:25;441.92;;;422.73;;
52620;SDS011;38515;53.160;6.990;2024-01-06T09:42:51;525.15;;;501.23;;
52620;SDS011;38515;53.160;6.990;2024-01-06T09:45:18;607.42;;;579.83;;
52620;SDS011;38515;53.160;6.990;2024-01-06T09:47:48;604.33;;;577.13;;
52620;SDS011;38515;53.160;6.990;2024-01-06T09:50:17;481.60;;;460.90;;
52620;SDS011;38515;53.160;6.990;2024-01-06T09:52:45;553.88;;;529.15;;
52620;SDS011;38515;53.160;6.990;2024-01-06T09:55:17;581.92;;;556.00;;
52620;SDS011;38515;53.160;6.990;2024-01-06T09:57:46;580.25;;;554.03;;
52620;SDS011;38515;53.160;6.990;2024-01-06T10:00:12;600.50;;;573.45;;
52620;SDS011;38515;53.160;6.990;2024-01-06T10:02:38;583.03;;;556.80;;
52620;SDS011;38515;53.160;6.990;2024-01-06T10:05:05;580.22;;;553.95;;
52620;SDS011;38515;53.160;6.990;2024-01-06T10:07:32;610.65;;;582.88;;
52620;SDS011;38515;53.160;6.990;2024-01-06T10:09:58;528.03;;;504.90;;
52620;SDS011;38515;53.160;6.990;2024-01-06T10:12:25;600.13;;;572.10;;
52620;SDS011;38515;53.160;6.990;2024-01-06T10:14:51;617.35;;;589.20;;
52620;SDS011;38515;53.160;6.990;2024-01-06T10:17:17;597.60;;;570.03;;
52620;SDS011;38515;53.160;6.990;2024-01-06T10:19:46;608.80;;;580.75;;
52620;SDS011;38515;53.160;6.990;2024-01-06T10:22:15;614.42;;;585.42;;
52620;SDS011;38515;53.160;6.990;2024-01-06T10:24:40;601.38;;;573.45;;
52620;SDS011;38515;53.160;6.990;2024-01-06T10:27:06;619.60;;;590.33;;
52620;SDS011;38515;53.160;6.990;2024-01-06T10:29:33;603.60;;;575.78;;
52620;SDS011;38515;53.160;6.990;2024-01-06T10:31:59;550.08;;;524.08;;
52620;SDS011;38515;53.160;6.990;2024-01-06T10:34:25;629.55;;;599.22;;
52620;SDS011;38515;53.160;6.990;2024-01-06T10:36:51;644.90;;;614.03;;
52620;SDS011;38515;53.160;6.990;2024-01-06T10:39:18;620.45;;;591.60;;
52620;SDS011;38515;53.160;6.990;2024-01-06T10:41:45;631.70;;;601.28;;
52620;SDS011;38515;53.160;6.990;2024-01-06T10:44:14;604.30;;;575.88;;
52620;SDS011;38515;53.160;6.990;2024-01-06T10:46:40;602.30;;;573.78;;
52620;SDS011;38515;53.160;6.990;2024-01-06T10:49:08;591.15;;;563.17;;
52620;SDS011;38515;53.160;6.990;2024-01-06T10:51:37;645.92;;;615.33;;
52620;SDS011;38515;53.160;6.990;2024-01-06T10:54:03;620.15;;;590.45;;
52620;SDS011;38515;53.160;6.990;2024-01-06T10:56:31;633.35;;;602.72;;
52620;SDS011;38515;53.160;6.990;2024-01-06T10:59:03;631.47;;;600.97;;
52620;SDS011;38515;53.160;6.990;2024-01-06T11:01:29;649.25;;;618.03;;
52620;SDS011;38515;53.160;6.990;2024-01-06T11:03:55;617.47;;;587.72;;
52620;SDS011;38515;53.160;6.990;2024-01-06T11:06:21;637.05;;;606.53;;
52620;SDS011;38515;53.160;6.990;2024-01-06T11:08:58;613.40;;;584.22;;
52620;SDS011;38515;53.160;6.990;2024-01-06T11:11:39;661.50;;;628.85;;
52620;SDS011;38515;53.160;6.990;2024-01-06T11:14:18;633.47;;;603.22;;
52620;SDS011;38515;53.160;6.990;2024-01-06T11:16:45;286.35;;;274.92;;
52620;SDS011;38515;53.160;6.990;2024-01-06T11:22:23;334.73;;;321.40;;
52620;SDS011;38515;53.160;6.990;2024-01-06T11:24:55;346.52;;;332.67;;
52620;SDS011;38515;53.160;6.990;2024-01-06T11:27:26;301.60;;;290.05;;
52620;SDS011;38515;53.160;6.990;2024-01-06T11:29:56;320.50;;;307.90;;
52620;SDS011;38515;53.160;6.990;2024-01-06T11:32:36;306.20;;;294.08;;
52620;SDS011;38515;53.160;6.990;2024-01-06T11:35:09;313.50;;;301.42;;
52620;SDS011;38515;53.160;6.990;2024-01-06T11:45:24;370.83;;;356.20;;
52620;SDS011;38515;53.160;6.990;2024-01-06T11:47:51;383.27;;;367.80;;
52620;SDS011;38515;53.160;6.990;2024-01-06T11:50:22;379.05;;;362.80;;
52620;SDS011;38515;53.160;6.990;2024-01-06T11:52:48;406.55;;;389.25;;
52620;SDS011;38515;53.160;6.990;2024-01-06T11:55:17;399.08;;;382.67;;
52620;SDS011;38515;53.160;6.990;2024-01-06T11:57:43;408.48;;;391.50;;
52620;SDS011;38515;53.160;6.990;2024-01-06T12:00:10;393.83;;;377.77;;
52620;SDS011;38515;53.160;6.990;2024-01-06T12:02:37;379.95;;;364.77;;
52620;SDS011;38515;53.160;6.990;2024-01-06T12:05:02;374.85;;;359.83;;
52620;SDS011;38515;53.160;6.990;2024-01-06T12:07:28;384.10;;;368.88;;
52620;SDS011;38515;53.160;6.990;2024-01-06T12:10:01;389.92;;;374.75;;
52620;SDS011;38515;53.160;6.990;2024-01-06T12:12:28;411.08;;;394.23;;
52620;SDS011;38515;53.160;6.990;2024-01-06T12:14:54;412.00;;;395.10;;
52620;SDS011;38515;53.160;6.990;2024-01-06T12:17:20;405.70;;;389.40;;
52620;SDS011;38515;53.160;6.990;2024-01-06T12:19:47;408.63;;;392.35;;
52620;SDS011;38515;53.160;6.990;2024-01-06T12:22:13;417.50;;;400.38;;
52620;SDS011;38515;53.160;6.990;2024-01-06T12:24:40;448.70;;;429.48;;
52620;SDS011;38515;53.160;6.990;2024-01-06T12:27:08;408.73;;;390.98;;
52620;SDS011;38515;53.160;6.990;2024-01-06T12:29:37;410.95;;;394.75;;
52620;SDS011;38515;53.160;6.990;2024-01-06T12:32:05;408.92;;;392.25;;
52620;SDS011;38515;53.160;6.990;2024-01-06T12:34:31;396.00;;;380.30;;
52620;SDS011;38515;53.160;6.990;2024-01-06T12:36:57;425.13;;;407.67;;
52620;SDS011;38515;53.160;6.990;2024-01-06T12:39:23;448.92;;;429.95;;
52620;SDS011;38515;53.160;6.990;2024-01-06T12:41:54;431.52;;;413.58;;
52620;SDS011;38515;53.160;6.990;2024-01-06T12:44:20;410.33;;;393.95;;
52620;SDS011;38515;53.160;6.990;2024-01-06T12:46:46;425.75;;;408.48;;
52620;SDS011;38515;53.160;6.990;2024-01-06T12:49:12;434.33;;;416.55;;
52620;SDS011;38515;53.160;6.990;2024-01-06T12:51:38;424.75;;;407.05;;
52620;SDS011;38515;53.160;6.990;2024-01-06T12:54:04;445.50;;;426.83;;
52620;SDS011;38515;53.160;6.990;2024-01-06T12:56:30;420.70;;;402.38;;
52620;SDS011;38515;53.160;6.990;2024-01-06T12:58:56;436.50;;;418.23;;
52620;SDS011;38515;53.160;6.990;2024-01-06T13:01:22;442.20;;;423.77;;
52620;SDS011;38515;53.160;6.990;2024-01-06T13:03:47;454.25;;;435.50;;
52620;SDS011;38515;53.160;6.990;2024-01-06T13:06:13;435.48;;;417.25;;
52620;SDS011;38515;53.160;6.990;2024-01-06T13:08:40;459.98;;;440.73;;
52620;SDS011;38515;53.160;6.990;2024-01-06T13:11:07;330.75;;;316.88;;
52620;SDS011;38515;53.160;6.990;2024-01-06T13:13:33;368.38;;;352.63;;
52620;SDS011;38515;53.160;6.990;2024-01-06T13:15:59;441.85;;;422.67;;
52620;SDS011;38515;53.160;6.990;2024-01-06T13:18:28;413.48;;;395.20;;
52620;SDS011;38515;53.160;6.990;2024-01-06T13:20:54;467.10;;;446.23;;
52620;SDS011;38515;53.160;6.990;2024-01-06T13:23:20;376.92;;;360.17;;
52620;SDS011;38515;53.160;6.990;2024-01-06T13:25:46;365.60;;;350.55;;
52620;SDS011;38515;53.160;6.990;2024-01-06T13:28:11;282.42;;;271.40;;
52620;SDS011;38515;53.160;6.990;2024-01-06T13:30:37;294.77;;;283.38;;
52620;SDS011;38515;53.160;6.990;2024-01-06T13:33:04;278.77;;;267.15;;
52620;SDS011;38515;53.160;6.990;2024-01-06T13:35:30;480.00;;;458.30;;
52620;SDS011;38515;53.160;6.990;2024-01-06T13:37:56;482.15;;;460.75;;
52620;SDS011;38515;53.160;6.990;2024-01-06T13:40:22;445.65;;;426.02;;
52620;SDS011;38515;53.160;6.990;2024-01-06T13:42:49;452.33;;;433.00;;
52620;SDS011;38515;53.160;6.990;2024-01-06T13:45:18;453.35;;;433.40;;
52620;SDS011;38515;53.160;6.990;2024-01-06T13:47:44;451.80;;;432.38;;
52620;SDS011;38515;53.160;6.990;2024-01-06T13:50:14;454.52;;;434.80;;
52620;SDS011;38515;53.160;6.990;2024-01-06T13:52:41;424.05;;;405.42;;
52620;SDS011;38515;53.160;6.990;2024-01-06T13:55:07;419.38;;;401.70;;
52620;SDS011;38515;53.160;6.990;2024-01-06T13:57:33;425.35;;;407.08;;
52620;SDS011;38515;53.160;6.990;2024-01-06T14:00:00;412.95;;;395.23;;
52620;SDS011;38515;53.160;6.990;2024-01-06T14:02:26;398.98;;;382.48;;